This is the latest recevied weather packets stored in our database for station/object lu6fg. If no packets are shown the sender has not sent any weather packets the latest 10 day(s).
| Time | Temp. | Humidity | Pressure | Rain* | Wind** | Luminosity | Snow |
|---|---|---|---|---|---|---|---|
| 1777524064 | 11.11° C | 77% | 1014.9 hPa | 0 mm | - | - | - |
| 1777523584 | 11.11° C | 76% | 1014.9 hPa | 0 mm | - | - | - |
| 1777522444 | 11.11° C | 78% | 1015 hPa | 0 mm | - | - | - |
| 1777521784 | 10.56° C | 80% | 1014.9 hPa | 0 mm | - | - | - |
| 1777521184 | 10.56° C | 80% | 1015 hPa | 0 mm | - | - | - |
| 1777520824 | 11.11° C | 80% | 1015 hPa | 0 mm | - | - | - |
| 1777520584 | 11.11° C | 80% | 1015 hPa | 0 mm | - | - | - |
| 1777520224 | 11.11° C | 79% | 1015.2 hPa | 0 mm | - | - | - |
| 1777519805 | 11.11° C | 80% | 1015.1 hPa | 0 mm | - | - | - |
| 1777519144 | 10.56° C | 80% | 1015 hPa | 0 mm | - | - | - |
| 1777518844 | 10.56° C | 80% | 1015.1 hPa | 0 mm | - | - | - |
| 1777518724 | 10.56° C | 79% | 1015 hPa | 0 mm | - | - | - |
| 1777518424 | 11.11° C | 78% | 1015.1 hPa | 0 mm | - | - | - |
| 1777518370 | 11.11° C | 78% | 1015.1 hPa | 0 mm | - | - | - |
| 1777517824 | 12.22° C | 75% | 1015 hPa | 0 mm | - | - | - |
| 1777517344 | 12.22° C | 75% | 1015 hPa | 0 mm | - | - | - |
| 1777517284 | 12.22° C | 76% | 1015.1 hPa | 0 mm | - | - | - |
| 1777517224 | 12.22° C | 76% | 1015 hPa | 0 mm | - | - | - |
| 1777517104 | 12.22° C | 76% | 1015.1 hPa | 0 mm | - | - | - |
| 1777516144 | 12.78° C | 73% | 1015 hPa | 0 mm | - | - | - |
| 1777515244 | 13.33° C | 71% | 1014.8 hPa | 0 mm | - | - | - |
| 1777515184 | 13.33° C | 70% | 1014.8 hPa | 0 mm | - | - | - |
| 1777514944 | 13.33° C | 68% | 1014.8 hPa | 0 mm | - | - | - |
| 1777514584 | 12.78° C | 71% | 1014.6 hPa | 0 mm | - | - | - |
| 1777514284 | 13.33° C | 71% | 1014.8 hPa | 0 mm | - | - | - |
* Rain latest hour (hover to see other rain measurements)
** Current wind speed in m/s (hover to see current wind gust speed)